Time;durP1;ratioP1;P1;durP2;ratioP2;P2;SDS_P1;SDS_P2;PMS_P1;PMS_P2;Temp;Humidity;BMP_temperature;BMP_pressure;BME280_temperature;BME280_humidity;BME280_pressure;Samples;Min_cycle;Max_cycle;Signal;HPM_P1;HPM_P2
2022/04/07 00:00:57;;;;;;;3.00;2.53;;;11.30;99.90;;;;;;5009786;28;20177;-74
2022/04/07 00:03:22;;;;;;;2.90;2.50;;;11.40;99.90;;;;;;5028690;28;20282;-74
2022/04/07 00:05:48;;;;;;;3.83;2.37;;;11.40;99.90;;;;;;5026436;28;20252;-74
2022/04/07 00:08:13;;;;;;;2.80;2.30;;;11.50;99.90;;;;;;5027744;28;20204;-74
2022/04/07 00:10:39;;;;;;;2.60;2.40;;;11.40;99.90;;;;;;5009321;28;20273;-75
2022/04/07 00:13:04;;;;;;;3.27;2.70;;;11.40;99.90;;;;;;5036153;28;20182;-74
2022/04/07 00:15:31;;;;;;;3.03;2.50;;;11.30;99.90;;;;;;5002308;28;20210;-74
2022/04/07 00:17:57;;;;;;;4.23;2.67;;;11.20;99.90;;;;;;5016363;28;20173;-74
2022/04/07 00:20:23;;;;;;;3.90;3.40;;;11.10;99.90;;;;;;5036082;28;20890;-74
2022/04/07 00:22:50;;;;;;;4.23;3.10;;;11.00;99.90;;;;;;5028052;28;20511;-75
2022/04/07 00:25:16;;;;;;;3.90;3.40;;;10.90;99.90;;;;;;5009676;28;20918;-74
2022/04/07 00:27:42;;;;;;;3.40;2.60;;;10.80;99.90;;;;;;5020843;28;20527;-75
2022/04/07 00:30:13;;;;;;;3.50;3.20;;;10.70;99.90;;;;;;5027010;28;20408;-75
2022/04/07 00:32:43;;;;;;;3.97;2.93;;;10.70;99.90;;;;;;5027414;28;20177;-74
2022/04/07 00:35:09;;;;;;;4.30;3.10;;;10.70;99.90;;;;;;5027149;28;21040;-74
2022/04/07 00:37:35;;;;;;;3.60;2.77;;;10.60;99.90;;;;;;5028108;28;20424;-75
2022/04/07 00:40:01;;;;;;;3.33;2.70;;;10.60;99.90;;;;;;5027739;28;20424;-74
2022/04/07 00:42:26;;;;;;;3.87;3.00;;;10.50;99.90;;;;;;5009306;28;20500;-74
2022/04/07 00:44:52;;;;;;;4.80;2.97;;;10.50;99.90;;;;;;5009322;28;20247;-74
2022/04/07 00:47:19;;;;;;;2.90;2.40;;;10.50;99.90;;;;;;5026554;28;20255;-74
2022/04/07 00:49:45;;;;;;;3.33;2.80;;;10.40;99.90;;;;;;5035914;28;20489;-74
2022/04/07 00:52:12;;;;;;;8.53;2.80;;;10.40;99.90;;;;;;5014483;28;20432;-75
2022/04/07 00:54:38;;;;;;;4.50;2.87;;;10.30;99.90;;;;;;5027370;28;20691;-75
2022/04/07 00:57:06;;;;;;;2.63;2.43;;;10.40;99.90;;;;;;5026246;28;20491;-75
2022/04/07 00:59:34;;;;;;;3.17;2.40;;;10.30;99.90;;;;;;5009197;28;20514;-74
2022/04/07 01:02:00;;;;;;;4.77;2.83;;;10.40;99.90;;;;;;5025983;28;20911;-74
2022/04/07 01:04:26;;;;;;;2.70;2.40;;;10.40;99.90;;;;;;5007568;28;20808;-74
2022/04/07 01:06:52;;;;;;;2.47;2.27;;;10.50;99.90;;;;;;5016006;28;20522;-74
2022/04/07 01:09:20;;;;;;;2.67;2.40;;;10.50;99.90;;;;;;5027081;28;20506;-74
2022/04/07 01:11:46;;;;;;;3.40;2.30;;;10.50;99.90;;;;;;5026590;28;20428;-74
2022/04/07 01:14:12;;;;;;;2.53;2.20;;;10.40;99.90;;;;;;5027152;28;20428;-75
2022/04/07 01:16:38;;;;;;;3.17;2.20;;;10.40;99.90;;;;;;5025995;28;20831;-74
2022/04/07 01:19:04;;;;;;;2.30;2.10;;;10.70;99.90;;;;;;5031128;28;20601;-74
2022/04/07 01:21:31;;;;;;;2.43;2.23;;;10.50;99.90;;;;;;5037013;28;20463;-74
2022/04/07 01:24:09;;;;;;;5.83;2.00;;;10.60;99.90;;;;;;5009330;28;20432;-74
2022/04/07 01:26:42;;;;;;;4.40;2.13;;;10.70;99.90;;;;;;5026277;28;20448;-74
2022/04/07 01:29:10;;;;;;;2.80;2.30;;;10.70;99.90;;;;;;5026591;28;20409;-71
2022/04/07 01:31:37;;;;;;;5.00;2.47;;;10.80;99.90;;;;;;5025858;28;20492;-75
2022/04/07 01:34:05;;;;;;;2.67;1.90;;;10.90;99.90;;;;;;5008418;28;20423;-74
2022/04/07 01:36:34;;;;;;;2.77;2.00;;;10.90;99.90;;;;;;5026462;28;20435;-74
2022/04/07 01:39:01;;;;;;;3.40;1.90;;;11.00;99.90;;;;;;5025579;28;20520;-74
2022/04/07 01:41:27;;;;;;;2.73;1.80;;;11.00;99.90;;;;;;5026455;28;20438;-74
2022/04/07 01:43:56;;;;;;;5.30;1.90;;;11.10;99.90;;;;;;5025607;28;20424;-74
2022/04/07 01:46:23;;;;;;;2.17;1.97;;;11.10;99.90;;;;;;5025282;28;20304;-74
2022/04/07 01:48:49;;;;;;;3.93;1.70;;;11.10;99.90;;;;;;5028517;28;20425;-74
2022/04/07 01:51:18;;;;;;;3.43;2.10;;;11.10;99.90;;;;;;5033525;28;20843;-74
2022/04/07 01:53:44;;;;;;;2.73;1.97;;;11.10;99.90;;;;;;5026626;28;20424;-74
2022/04/07 01:56:11;;;;;;;2.40;2.17;;;11.10;99.90;;;;;;5008084;28;20531;-74
2022/04/07 01:58:36;;;;;;;2.80;1.90;;;11.10;99.90;;;;;;5026724;28;20710;-74
2022/04/07 02:01:05;;;;;;;2.03;1.73;;;11.10;99.90;;;;;;5025586;28;21033;-74
2022/04/07 02:03:31;;;;;;;2.73;2.07;;;11.20;99.90;;;;;;5026873;28;20480;-74
2022/04/07 02:06:13;;;;;;;3.40;1.90;;;11.20;99.90;;;;;;5026386;28;20432;-74
2022/04/07 02:08:38;;;;;;;2.03;1.70;;;11.30;99.90;;;;;;5014604;28;20612;-74
2022/04/07 02:11:04;;;;;;;2.20;1.70;;;11.30;99.90;;;;;;5029940;28;20479;-73
2022/04/07 02:13:32;;;;;;;4.93;1.77;;;11.30;99.90;;;;;;5029707;28;20288;-74
2022/04/07 02:15:58;;;;;;;1.83;1.40;;;11.30;99.90;;;;;;5011915;28;20534;-74
2022/04/07 02:18:23;;;;;;;1.40;1.30;;;11.30;99.90;;;;;;5029930;28;20970;-74
2022/04/07 02:20:49;;;;;;;4.80;1.73;;;11.20;99.90;;;;;;5022681;28;20787;-74
2022/04/07 02:23:14;;;;;;;1.87;1.47;;;11.10;99.90;;;;;;5029965;28;20247;-74
2022/04/07 02:25:40;;;;;;;3.73;1.50;;;11.10;99.90;;;;;;5030014;28;20317;-74
2022/04/07 02:28:05;;;;;;;2.17;1.80;;;11.00;99.90;;;;;;5030331;28;20535;-74
2022/04/07 02:30:31;;;;;;;1.77;1.63;;;11.00;99.90;;;;;;5029394;28;20181;-74
2022/04/07 02:32:56;;;;;;;1.43;1.33;;;11.10;99.90;;;;;;5030348;28;20189;-75
2022/04/07 02:35:22;;;;;;;1.67;1.57;;;11.10;99.90;;;;;;5030497;28;20206;-74
2022/04/07 02:37:47;;;;;;;1.70;1.27;;;11.10;99.90;;;;;;5030181;28;20204;-74
2022/04/07 02:40:13;;;;;;;2.63;1.97;;;11.10;99.90;;;;;;5029913;28;20351;-74
2022/04/07 02:42:39;;;;;;;1.40;1.30;;;11.10;99.90;;;;;;5029499;28;20184;-74
2022/04/07 02:45:05;;;;;;;1.27;1.17;;;11.20;99.90;;;;;;5029071;28;20198;-74
2022/04/07 02:47:32;;;;;;;1.67;1.53;;;11.10;99.90;;;;;;5029995;28;20205;-74
2022/04/07 02:49:58;;;;;;;1.73;1.60;;;11.20;99.90;;;;;;5031417;28;20420;-74
2022/04/07 02:52:24;;;;;;;2.10;1.40;;;11.20;99.90;;;;;;5028342;28;20413;-75
2022/04/07 02:54:49;;;;;;;1.97;1.57;;;11.20;99.90;;;;;;5027991;28;20482;-74
2022/04/07 02:57:15;;;;;;;3.67;1.40;;;11.20;99.90;;;;;;5029634;28;20332;-74
2022/04/07 02:59:40;;;;;;;1.87;1.40;;;11.20;99.90;;;;;;5011424;28;20188;-75
2022/04/07 03:02:06;;;;;;;1.60;1.50;;;11.20;99.90;;;;;;5029046;28;20177;-74
2022/04/07 03:04:31;;;;;;;1.53;1.40;;;11.20;99.90;;;;;;5030311;28;20190;-74
2022/04/07 03:06:57;;;;;;;1.60;1.50;;;11.20;99.90;;;;;;5028397;28;20544;-74
2022/04/07 03:09:22;;;;;;;1.70;1.43;;;11.20;99.90;;;;;;5028662;28;20180;-74
2022/04/07 03:11:48;;;;;;;3.73;1.30;;;11.20;99.90;;;;;;5027809;28;20535;-74
2022/04/07 03:14:14;;;;;;;2.13;1.40;;;11.10;99.90;;;;;;5027655;28;20265;-74
2022/04/07 03:16:40;;;;;;;1.93;1.57;;;11.10;99.90;;;;;;5028864;28;20704;-74
2022/04/07 03:19:05;;;;;;;1.73;1.60;;;11.20;99.90;;;;;;5033237;28;20420;-74
2022/04/07 03:21:31;;;;;;;1.50;1.30;;;11.10;99.90;;;;;;5033392;28;20424;-74
2022/04/07 03:23:56;;;;;;;4.10;1.40;;;11.20;99.90;;;;;;5028078;28;20193;-72
2022/04/07 03:26:22;;;;;;;2.37;1.43;;;11.20;99.90;;;;;;5005425;28;20210;-77
2022/04/07 03:28:47;;;;;;;1.50;1.40;;;11.20;99.90;;;;;;5027582;28;20618;-74
2022/04/07 03:31:13;;;;;;;3.10;1.40;;;11.20;99.90;;;;;;5027646;28;20696;-74
2022/04/07 03:33:39;;;;;;;1.37;1.27;;;11.20;99.90;;;;;;5028769;28;20174;-74
2022/04/07 03:36:04;;;;;;;1.90;1.50;;;11.30;99.90;;;;;;5028078;28;20189;-76
2022/04/07 03:38:30;;;;;;;2.27;1.47;;;11.20;99.90;;;;;;5028961;28;20196;-74
2022/04/07 03:40:56;;;;;;;1.50;1.40;;;11.20;99.90;;;;;;5028329;28;20189;-74
2022/04/07 03:43:21;;;;;;;1.93;1.57;;;11.30;99.90;;;;;;5028737;28;20178;-74
2022/04/07 03:45:47;;;;;;;1.23;1.10;;;11.30;99.90;;;;;;5028114;28;20394;-74
2022/04/07 03:48:13;;;;;;;1.70;1.30;;;11.20;99.90;;;;;;5032932;28;20619;-72
2022/04/07 03:50:38;;;;;;;1.87;1.40;;;11.20;99.90;;;;;;5019507;28;20256;-74
2022/04/07 03:53:04;;;;;;;1.57;1.30;;;11.20;99.90;;;;;;5028077;28;20201;-74
2022/04/07 03:55:30;;;;;;;1.53;1.40;;;11.20;99.90;;;;;;5009909;28;20523;-74
2022/04/07 03:57:56;;;;;;;1.63;1.20;;;11.20;99.90;;;;;;5028809;28;20223;-75
2022/04/07 04:00:22;;;;;;;1.60;1.40;;;11.30;99.90;;;;;;5027896;28;20593;-75
2022/04/07 04:02:50;;;;;;;1.93;1.30;;;11.30;99.90;;;;;;5027994;28;20238;-74
2022/04/07 04:05:16;;;;;;;2.43;1.30;;;11.40;99.90;;;;;;5025466;28;20915;-75
2022/04/07 04:07:42;;;;;;;2.30;1.33;;;11.30;99.90;;;;;;5028164;28;20444;-74
2022/04/07 04:10:08;;;;;;;1.30;1.20;;;11.30;99.90;;;;;;5028329;28;20425;-74
2022/04/07 04:12:33;;;;;;;4.00;1.57;;;11.40;99.90;;;;;;5027551;28;20177;-75
2022/04/07 04:15:00;;;;;;;1.40;1.30;;;11.40;99.90;;;;;;5027849;28;20410;-72
2022/04/07 04:17:27;;;;;;;1.33;1.10;;;11.40;99.90;;;;;;5027820;28;20203;-74
2022/04/07 04:19:53;;;;;;;2.00;1.30;;;11.40;99.90;;;;;;5038115;28;20786;-75
2022/04/07 04:22:18;;;;;;;1.90;1.30;;;11.40;99.90;;;;;;5026439;28;20445;-75
2022/04/07 04:24:44;;;;;;;4.90;1.13;;;11.40;99.90;;;;;;5008649;28;20202;-74
2022/04/07 04:27:09;;;;;;;1.40;1.20;;;11.40;99.90;;;;;;5035384;28;20205;-75
2022/04/07 04:29:35;;;;;;;1.40;1.30;;;11.40;99.90;;;;;;5018727;28;20671;-74
2022/04/07 04:32:00;;;;;;;1.50;1.40;;;11.20;99.90;;;;;;5025637;28;20631;-74
2022/04/07 04:34:26;;;;;;;1.90;1.57;;;11.00;99.90;;;;;;5027436;28;20468;-77
2022/04/07 04:36:52;;;;;;;1.13;1.03;;;10.90;99.90;;;;;;5027816;28;20660;-77
2022/04/07 04:39:18;;;;;;;2.13;1.23;;;11.00;99.90;;;;;;5028333;28;20166;-77
2022/04/07 04:41:43;;;;;;;1.50;1.10;;;11.20;99.90;;;;;;5040657;28;20792;-76
2022/04/07 04:44:09;;;;;;;1.47;1.37;;;11.80;99.90;;;;;;5026135;28;20280;-74
2022/04/07 04:46:34;;;;;;;1.90;1.37;;;10.70;99.90;;;;;;5026348;28;20237;-74
2022/04/07 04:49:00;;;;;;;1.73;1.20;;;10.70;99.90;;;;;;5010294;28;20601;-74
2022/04/07 04:51:25;;;;;;;3.17;1.17;;;10.80;99.90;;;;;;5042326;28;20196;-76
2022/04/07 04:53:51;;;;;;;1.50;1.20;;;10.70;99.90;;;;;;5033955;28;20178;-77
2022/04/07 04:56:16;;;;;;;3.50;1.47;;;10.70;99.90;;;;;;5025985;28;20711;-77
2022/04/07 04:58:42;;;;;;;1.50;1.40;;;10.80;99.90;;;;;;5027572;28;20264;-76
2022/04/07 05:01:07;;;;;;;2.23;1.30;;;10.80;99.90;;;;;;5026605;28;20239;-77
2022/04/07 05:03:33;;;;;;;1.40;1.17;;;10.70;99.90;;;;;;5026249;28;20186;-76
2022/04/07 05:05:58;;;;;;;1.83;1.40;;;10.70;99.90;;;;;;5017860;28;20248;-76
2022/04/07 05:08:24;;;;;;;2.83;1.50;;;10.70;99.90;;;;;;5026886;28;20663;-76
2022/04/07 05:10:49;;;;;;;1.30;1.17;;;10.70;99.90;;;;;;5022306;28;20178;-77
2022/04/07 05:13:15;;;;;;;3.40;1.67;;;10.70;99.90;;;;;;5024979;28;20563;-76
2022/04/07 05:15:40;;;;;;;1.83;1.40;;;10.70;99.90;;;;;;5025216;28;20206;-77
2022/04/07 05:18:06;;;;;;;1.97;1.50;;;10.70;99.90;;;;;;5030777;28;20193;-77
2022/04/07 05:20:32;;;;;;;1.63;1.20;;;10.70;99.90;;;;;;5022324;28;20226;-77
2022/04/07 05:22:57;;;;;;;1.60;1.50;;;10.50;99.90;;;;;;5026202;28;20244;-76
2022/04/07 05:25:23;;;;;;;1.67;1.40;;;10.50;99.90;;;;;;5026389;28;20606;-77
2022/04/07 05:27:49;;;;;;;2.67;1.30;;;10.60;99.90;;;;;;5026426;28;20213;-77
2022/04/07 05:30:15;;;;;;;3.93;1.60;;;10.80;99.90;;;;;;5026030;28;20738;-76
2022/04/07 05:32:42;;;;;;;1.40;1.30;;;10.80;99.90;;;;;;5026137;28;20239;-78
2022/04/07 05:35:09;;;;;;;3.97;1.73;;;10.90;99.90;;;;;;5008228;28;20521;-76
2022/04/07 05:37:35;;;;;;;5.53;1.50;;;10.90;99.90;;;;;;5009064;28;20431;-76
2022/04/07 05:40:00;;;;;;;3.67;1.60;;;11.00;99.90;;;;;;5026373;28;20455;-77
2022/04/07 05:42:26;;;;;;;5.80;1.30;;;10.90;99.90;;;;;;5028293;28;20207;-76
2022/04/07 05:44:51;;;;;;;2.93;1.30;;;11.00;99.90;;;;;;5033117;28;20205;-76
2022/04/07 05:47:17;;;;;;;1.80;1.30;;;11.00;99.90;;;;;;5031800;28;20201;-74
2022/04/07 05:49:42;;;;;;;1.57;1.30;;;11.00;99.90;;;;;;5031903;28;20262;-77
2022/04/07 05:52:08;;;;;;;2.50;1.20;;;11.50;99.90;;;;;;5019413;28;20173;-77
2022/04/07 05:54:34;;;;;;;3.00;1.03;;;11.10;99.90;;;;;;5016062;28;20593;-76
2022/04/07 05:57:00;;;;;;;1.53;1.40;;;11.20;99.90;;;;;;5014486;28;20181;-77
2022/04/07 05:59:25;;;;;;;1.53;1.20;;;11.20;99.90;;;;;;5022484;28;20212;-75
2022/04/07 06:01:51;;;;;;;1.80;1.37;;;11.20;99.90;;;;;;5015305;28;20186;-76
2022/04/07 06:04:17;;;;;;;1.37;1.17;;;11.30;99.90;;;;;;5014427;28;20181;-76
2022/04/07 06:06:43;;;;;;;3.23;1.30;;;11.30;99.90;;;;;;5013775;28;20209;-76
2022/04/07 06:09:09;;;;;;;5.30;1.23;;;11.40;99.90;;;;;;5013768;28;20216;-76
2022/04/07 06:11:34;;;;;;;1.67;1.20;;;11.40;99.90;;;;;;5013679;28;20181;-76
2022/04/07 06:14:00;;;;;;;1.23;1.13;;;11.40;99.90;;;;;;5014600;28;20201;-77
2022/04/07 06:16:26;;;;;;;3.20;1.50;;;11.40;99.90;;;;;;5012150;28;20291;-77
2022/04/07 06:18:52;;;;;;;1.70;1.10;;;11.50;99.90;;;;;;5013789;28;20371;-77
2022/04/07 06:21:18;;;;;;;1.73;1.30;;;11.80;99.90;;;;;;5012019;28;20174;-78
2022/04/07 06:23:44;;;;;;;1.10;1.00;;;11.50;99.90;;;;;;5013513;28;20724;-76
2022/04/07 06:26:11;;;;;;;1.67;1.10;;;11.60;99.90;;;;;;5013390;28;20577;-74
2022/04/07 06:28:36;;;;;;;1.70;1.00;;;11.80;99.90;;;;;;5023237;28;20427;-74
2022/04/07 06:31:03;;;;;;;5.27;2.20;;;11.80;99.90;;;;;;5019926;28;20468;-71
2022/04/07 06:33:28;;;;;;;5.93;1.17;;;11.70;99.90;;;;;;5031497;28;20474;-73
2022/04/07 06:35:54;;;;;;;1.57;1.17;;;11.70;99.90;;;;;;5028563;28;20232;-72
2022/04/07 06:38:20;;;;;;;1.30;1.00;;;11.80;99.90;;;;;;5031895;28;20196;-74
2022/04/07 06:40:45;;;;;;;2.17;1.27;;;11.90;99.90;;;;;;5030048;28;20371;-75
2022/04/07 06:43:11;;;;;;;1.43;1.23;;;12.10;99.90;;;;;;5031744;28;20595;-75
2022/04/07 06:45:36;;;;;;;1.37;1.10;;;12.10;99.90;;;;;;5026965;28;20239;-76
2022/04/07 06:48:03;;;;;;;1.03;0.93;;;12.10;99.90;;;;;;5030251;28;20534;-74
2022/04/07 06:50:29;;;;;;;3.40;1.10;;;11.70;99.90;;;;;;5032055;28;20178;-73
2022/04/07 06:52:56;;;;;;;1.10;1.00;;;11.60;99.90;;;;;;5033551;28;20458;-75
2022/04/07 06:55:22;;;;;;;1.30;1.03;;;11.50;99.90;;;;;;5043023;28;20193;-75
2022/04/07 06:57:57;;;;;;;1.70;1.10;;;11.40;99.90;;;;;;5042568;28;20535;-75
2022/04/07 07:00:24;;;;;;;5.57;1.40;;;11.40;99.90;;;;;;5026341;28;20553;-76
2022/04/07 07:02:53;;;;;;;2.90;1.30;;;11.30;99.90;;;;;;5027823;28;20521;-77
2022/04/07 07:05:24;;;;;;;1.50;1.20;;;11.40;99.90;;;;;;5030510;28;20507;-76
2022/04/07 07:07:50;;;;;;;1.63;1.00;;;11.50;99.90;;;;;;5029835;28;20468;-76
2022/04/07 07:10:20;;;;;;;1.60;1.00;;;11.60;99.90;;;;;;5029688;28;20425;-75
2022/04/07 07:12:47;;;;;;;1.23;0.93;;;11.70;99.90;;;;;;5008898;28;20197;-75
2022/04/07 07:15:13;;;;;;;1.27;1.00;;;11.70;99.90;;;;;;5032496;28;20448;-75
2022/04/07 07:17:39;;;;;;;4.80;1.20;;;11.70;99.90;;;;;;5011712;28;20431;-76
2022/04/07 07:20:12;;;;;;;1.33;1.00;;;11.70;99.90;;;;;;5037594;28;20181;-75
2022/04/07 07:22:39;;;;;;;1.43;1.00;;;11.60;99.90;;;;;;5039848;28;20474;-75
2022/04/07 07:25:05;;;;;;;1.87;1.10;;;11.60;99.90;;;;;;5026680;28;20441;-75
2022/04/07 07:27:39;;;;;;;1.20;1.10;;;11.60;99.90;;;;;;5028787;28;20567;-76
2022/04/07 07:30:10;;;;;;;2.33;0.97;;;11.60;99.90;;;;;;5011038;28;20475;-76
2022/04/07 07:32:44;;;;;;;1.30;1.00;;;11.50;99.90;;;;;;5029630;28;20511;-75
2022/04/07 07:35:10;;;;;;;3.30;1.10;;;11.60;99.90;;;;;;5037699;28;20436;-75
2022/04/07 07:37:36;;;;;;;1.50;0.87;;;11.60;99.90;;;;;;5037831;28;20442;-75
2022/04/07 07:40:04;;;;;;;1.23;0.90;;;11.60;99.90;;;;;;5028035;28;20428;-75
2022/04/07 07:42:30;;;;;;;1.67;1.13;;;11.60;99.90;;;;;;5008152;28;20432;-77
2022/04/07 07:44:55;;;;;;;1.43;0.90;;;11.70;99.90;;;;;;5032401;28;20501;-76
2022/04/07 07:47:21;;;;;;;1.20;0.90;;;11.70;99.90;;;;;;5028540;28;20222;-75
2022/04/07 07:49:46;;;;;;;1.23;0.90;;;11.80;99.90;;;;;;5029694;28;20206;-75
2022/04/07 07:52:12;;;;;;;1.10;1.00;;;11.80;99.90;;;;;;5017626;28;20189;-76
2022/04/07 07:54:37;;;;;;;2.63;1.17;;;11.80;99.90;;;;;;5027994;28;20623;-76
2022/04/07 07:57:03;;;;;;;1.20;0.90;;;11.90;99.90;;;;;;5028286;28;20291;-76
2022/04/07 07:59:29;;;;;;;3.73;1.00;;;11.90;99.90;;;;;;5037116;28;20607;-77
2022/04/07 08:01:54;;;;;;;1.33;1.20;;;12.10;99.90;;;;;;5032469;28;20227;-77
2022/04/07 08:04:20;;;;;;;2.50;1.23;;;12.20;99.90;;;;;;5036898;28;20201;-75
2022/04/07 08:06:45;;;;;;;1.50;1.10;;;12.20;99.90;;;;;;5027798;28;20202;-76
2022/04/07 08:09:13;;;;;;;1.73;1.00;;;12.20;99.90;;;;;;5032044;28;20246;-77
2022/04/07 08:11:40;;;;;;;3.10;0.90;;;12.20;99.90;;;;;;5007208;28;20606;-76
2022/04/07 08:14:05;;;;;;;1.63;0.90;;;12.30;99.90;;;;;;5015646;28;20444;-74
2022/04/07 08:16:31;;;;;;;1.70;1.00;;;12.40;99.90;;;;;;5035353;28;20440;-77
2022/04/07 08:18:57;;;;;;;1.70;1.30;;;12.50;99.90;;;;;;5039752;28;20182;-75
2022/04/07 08:21:22;;;;;;;2.60;1.23;;;12.60;99.90;;;;;;5029918;28;20190;-76
2022/04/07 08:23:48;;;;;;;4.30;1.20;;;12.60;99.90;;;;;;5029131;28;20771;-76
2022/04/07 08:26:14;;;;;;;3.87;1.00;;;12.50;99.90;;;;;;5034175;28;20192;-75
2022/04/07 08:28:40;;;;;;;6.30;1.30;;;12.80;99.90;;;;;;5040629;28;20253;-75
2022/04/07 08:31:05;;;;;;;1.70;1.30;;;12.70;99.90;;;;;;5026101;28;20178;-77
2022/04/07 08:33:31;;;;;;;3.10;0.90;;;12.50;99.90;;;;;;5032871;28;20537;-77
2022/04/07 08:35:56;;;;;;;3.43;2.03;;;12.40;99.90;;;;;;5039576;28;20282;-76
2022/04/07 08:38:22;;;;;;;1.10;0.90;;;12.40;99.90;;;;;;5042754;28;20181;-77
2022/04/07 08:40:51;;;;;;;2.43;1.40;;;12.30;99.90;;;;;;5035411;28;20215;-76
2022/04/07 08:43:18;;;;;;;1.57;1.10;;;12.20;99.90;;;;;;5026988;28;20219;-76
2022/04/07 08:45:44;;;;;;;1.90;1.17;;;12.00;99.90;;;;;;5026960;28;20511;-77
2022/04/07 08:48:12;;;;;;;1.70;1.10;;;11.60;99.90;;;;;;5035942;28;20506;-77
2022/04/07 08:50:45;;;;;;;1.60;1.33;;;11.50;99.90;;;;;;5028970;28;20420;-75
2022/04/07 08:53:12;;;;;;;2.30;1.10;;;11.40;99.90;;;;;;5034912;28;20490;-75
2022/04/07 08:55:38;;;;;;;4.50;1.40;;;11.40;99.90;;;;;;5008562;28;20453;-76
2022/04/07 08:58:05;;;;;;;3.83;1.30;;;11.50;99.90;;;;;;5036950;28;20453;-76
2022/04/07 09:00:31;;;;;;;3.83;1.30;;;11.50;99.90;;;;;;5027182;28;20523;-76
2022/04/07 09:02:57;;;;;;;13.50;1.23;;;11.50;99.90;;;;;;5035414;28;20941;-77
2022/04/07 09:05:24;;;;;;;3.93;1.27;;;11.40;99.90;;;;;;5042377;28;20443;-77
2022/04/07 09:07:51;;;;;;;2.23;1.00;;;11.40;99.90;;;;;;5041311;28;20231;-77
2022/04/07 09:10:23;;;;;;;1.60;1.10;;;11.50;99.90;;;;;;5027092;28;20711;-76
2022/04/07 09:12:50;;;;;;;4.10;1.17;;;11.50;99.90;;;;;;5033535;28;20478;-77
2022/04/07 09:15:16;;;;;;;1.30;1.03;;;11.50;99.90;;;;;;5027518;28;20510;-76
2022/04/07 09:17:50;;;;;;;1.90;1.10;;;11.60;99.90;;;;;;5012165;28;20448;-78
2022/04/07 09:20:16;;;;;;;3.60;1.40;;;11.70;99.90;;;;;;5033094;28;20191;-76
2022/04/07 09:22:41;;;;;;;1.50;1.20;;;12.00;99.90;;;;;;5038214;28;20444;-74
2022/04/07 09:25:07;;;;;;;1.50;1.00;;;12.10;99.90;;;;;;5027089;28;20204;-74
2022/04/07 09:27:33;;;;;;;3.33;1.20;;;12.20;99.90;;;;;;5026941;28;20293;-75
2022/04/07 09:29:59;;;;;;;2.53;1.13;;;12.30;99.90;;;;;;5025204;28;20533;-75
2022/04/07 09:32:26;;;;;;;0.90;0.80;;;12.30;99.90;;;;;;5016119;28;20177;-74
2022/04/07 09:34:59;;;;;;;1.10;0.90;;;12.40;99.90;;;;;;5038379;28;20193;-75
2022/04/07 09:37:28;;;;;;;1.60;1.10;;;12.60;99.90;;;;;;5034654;28;20796;-75
2022/04/07 09:40:07;;;;;;;4.23;1.10;;;12.80;99.90;;;;;;5039234;28;20431;-76
2022/04/07 09:42:34;;;;;;;1.83;0.87;;;12.90;99.90;;;;;;5032676;28;20432;-76
2022/04/07 09:45:01;;;;;;;1.70;1.10;;;12.10;99.90;;;;;;5025734;28;20465;-74
2022/04/07 09:47:45;;;;;;;1.10;1.00;;;12.20;99.90;;;;;;5030027;28;20911;-76
2022/04/07 09:50:22;;;;;;;1.43;1.20;;;12.00;99.90;;;;;;5009138;28;20416;-75
2022/04/07 09:53:14;;;;;;;4.90;1.00;;;12.00;99.90;;;;;;5027408;28;20444;-76
2022/04/07 09:55:41;;;;;;;1.73;1.10;;;12.20;99.90;;;;;;5026781;28;20957;-77
2022/04/07 09:58:08;;;;;;;1.37;1.10;;;12.40;99.90;;;;;;5038049;28;20431;-76
2022/04/07 10:00:35;;;;;;;2.60;1.03;;;12.40;99.90;;;;;;5025075;28;20577;-75
2022/04/07 10:03:05;;;;;;;1.40;0.90;;;12.50;99.90;;;;;;5027628;28;20428;-75
2022/04/07 10:05:31;;;;;;;2.67;1.20;;;12.70;99.90;;;;;;5006145;28;20452;-76
2022/04/07 10:07:57;;;;;;;2.13;1.00;;;12.80;99.90;;;;;;5026557;28;20464;-77
2022/04/07 10:10:23;;;;;;;5.13;1.10;;;12.90;99.90;;;;;;5026759;28;20420;-76
2022/04/07 10:12:50;;;;;;;1.47;1.00;;;13.10;99.90;;;;;;5027031;28;20420;-77
2022/04/07 10:15:16;;;;;;;1.40;1.10;;;13.40;99.90;;;;;;5026074;28;20444;-76
2022/04/07 10:17:43;;;;;;;1.17;1.07;;;13.50;99.90;;;;;;5026491;28;20904;-77
2022/04/07 10:20:15;;;;;;;1.77;1.00;;;13.70;99.90;;;;;;5026571;28;20914;-76
2022/04/07 10:22:58;;;;;;;1.00;0.90;;;13.70;99.90;;;;;;5026952;28;20993;-75
2022/04/07 10:25:24;;;;;;;3.43;0.90;;;13.70;99.90;;;;;;5027414;28;20450;-76
2022/04/07 10:27:52;;;;;;;0.93;0.83;;;13.80;99.90;;;;;;5036732;28;20459;-76
2022/04/07 10:30:18;;;;;;;1.20;0.90;;;14.00;99.90;;;;;;5029190;28;20428;-75
2022/04/07 10:32:47;;;;;;;1.30;0.93;;;14.20;99.90;;;;;;5011921;28;20996;-74
2022/04/07 10:35:33;;;;;;;1.10;1.00;;;14.30;99.90;;;;;;5029758;28;20194;-75
2022/04/07 10:38:00;;;;;;;4.07;1.20;;;14.10;99.90;;;;;;5031124;28;20416;-75
2022/04/07 10:40:52;;;;;;;2.07;1.00;;;13.20;99.90;;;;;;5030208;28;20464;-76
2022/04/07 10:43:21;;;;;;;4.33;3.20;;;12.90;99.90;;;;;;5029147;28;20520;-77
2022/04/07 10:46:08;;;;;;;2.00;1.30;;;12.90;99.90;;;;;;5029510;28;20442;-77
2022/04/07 10:48:35;;;;;;;2.13;1.33;;;13.00;99.90;;;;;;5027008;28;21039;-75
2022/04/07 10:51:09;;;;;;;1.63;1.30;;;13.40;99.90;;;;;;5030325;28;20417;-74
2022/04/07 10:53:55;;;;;;;2.03;1.10;;;13.60;99.90;;;;;;5012375;28;20703;-78
2022/04/07 10:56:34;;;;;;;1.60;1.50;;;13.70;99.90;;;;;;5002620;28;20462;-78
2022/04/07 10:59:19;;;;;;;1.43;1.10;;;13.80;99.90;;;;;;5027437;28;20890;-78
2022/04/07 11:01:47;;;;;;;1.10;1.00;;;14.00;99.90;;;;;;5029575;28;20429;-77
2022/04/07 11:04:21;;;;;;;6.10;1.80;;;14.30;99.90;;;;;;5030340;28;20488;-77
2022/04/07 11:07:08;;;;;;;1.07;0.97;;;14.60;99.90;;;;;;5029918;28;21054;-77
2022/04/07 11:10:10;;;;;;;1.40;1.30;;;14.60;99.90;;;;;;5030822;28;20758;-77
2022/04/07 11:12:42;;;;;;;1.43;1.10;;;14.60;99.90;;;;;;5022982;28;20634;-77
2022/04/07 11:15:16;;;;;;;2.30;1.23;;;14.50;99.90;;;;;;5011459;28;20448;-78
2022/04/07 11:17:43;;;;;;;1.10;1.00;;;14.60;99.90;;;;;;5029977;28;20435;-76
2022/04/07 11:20:26;;;;;;;1.60;1.00;;;14.60;99.90;;;;;;5012106;28;20437;-77
2022/04/07 11:23:01;;;;;;;1.27;1.10;;;14.90;99.90;;;;;;5011617;28;20516;-77
2022/04/07 11:25:43;;;;;;;1.30;1.20;;;14.90;99.90;;;;;;5029587;28;20555;-77
2022/04/07 11:28:19;;;;;;;1.43;1.00;;;15.10;99.90;;;;;;5022403;28;20560;-78
2022/04/07 11:31:04;;;;;;;1.40;0.93;;;15.20;99.90;;;;;;5029329;28;20470;-77
2022/04/07 11:33:38;;;;;;;2.50;1.20;;;14.80;99.90;;;;;;5029209;28;20478;-77
2022/04/07 11:36:04;;;;;;;5.70;1.00;;;14.70;99.90;;;;;;5004030;28;20444;-75
2022/04/07 11:38:45;;;;;;;2.10;1.00;;;14.70;99.90;;;;;;5011272;28;20466;-77
2022/04/07 11:41:16;;;;;;;1.23;1.00;;;14.70;99.90;;;;;;5028787;28;20166;-75
2022/04/07 11:43:46;;;;;;;1.73;1.07;;;14.80;99.90;;;;;;5029343;28;20421;-76
2022/04/07 11:46:26;;;;;;;1.53;0.90;;;14.80;99.90;;;;;;5028148;28;20550;-76
2022/04/07 11:48:54;;;;;;;3.07;0.90;;;14.80;99.90;;;;;;5029556;28;20428;-75
2022/04/07 11:51:19;;;;;;;1.00;0.80;;;14.80;99.90;;;;;;5011596;28;20442;-76
2022/04/07 11:53:52;;;;;;;1.50;0.90;;;14.70;99.90;;;;;;5011049;28;20429;-76
2022/04/07 11:56:20;;;;;;;6.60;1.00;;;14.60;99.90;;;;;;5028820;28;20305;-76
2022/04/07 11:59:05;;;;;;;2.27;0.90;;;14.70;99.90;;;;;;5041545;28;20929;-77
2022/04/07 12:01:31;;;;;;;1.20;0.90;;;14.60;99.90;;;;;;5029755;28;20432;-77
2022/04/07 12:04:00;;;;;;;1.00;0.90;;;14.60;99.90;;;;;;5029015;28;20447;-77
2022/04/07 12:06:34;;;;;;;1.27;0.90;;;14.70;99.90;;;;;;5025889;28;20451;-76
2022/04/07 12:09:01;;;;;;;0.90;0.77;;;14.90;99.90;;;;;;5029503;28;20491;-77
2022/04/07 12:11:28;;;;;;;1.10;0.80;;;14.90;99.90;;;;;;5027872;28;20425;-77
2022/04/07 12:13:56;;;;;;;0.90;0.80;;;14.90;99.90;;;;;;5011561;28;20489;-77
2022/04/07 12:16:24;;;;;;;0.90;0.70;;;15.10;99.90;;;;;;5028596;28;20895;-76
2022/04/07 12:18:57;;;;;;;1.20;0.87;;;15.20;99.90;;;;;;5028919;28;20922;-76
2022/04/07 12:21:25;;;;;;;10.80;1.30;;;15.30;99.90;;;;;;5024018;28;20430;-77
2022/04/07 12:24:12;;;;;;;2.10;0.90;;;15.50;99.90;;;;;;5029488;28;20408;-77
2022/04/07 12:26:42;;;;;;;1.00;0.80;;;15.60;99.90;;;;;;5027968;28;20413;-76
2022/04/07 12:29:26;;;;;;;5.43;1.20;;;15.80;99.90;;;;;;5024014;28;20457;-77
2022/04/07 12:32:03;;;;;;;1.00;0.90;;;15.90;99.90;;;;;;5026827;28;20503;-76
2022/04/07 12:34:29;;;;;;;2.47;0.90;;;16.20;99.90;;;;;;5010855;28;20440;-77
2022/04/07 12:36:55;;;;;;;1.00;0.83;;;16.40;99.90;;;;;;5029043;28;20833;-77
2022/04/07 12:39:21;;;;;;;1.00;0.90;;;17.10;99.90;;;;;;5029190;28;20178;-77
2022/04/07 12:41:51;;;;;;;2.13;1.40;;;18.00;99.90;;;;;;5028029;28;20247;-78
2022/04/07 12:44:21;;;;;;;1.70;1.60;;;18.90;99.90;;;;;;5027786;28;20182;-77
2022/04/07 12:46:51;;;;;;;1.30;1.20;;;18.80;99.90;;;;;;5027865;28;20460;-76
2022/04/07 12:49:28;;;;;;;5.80;1.60;;;18.40;99.90;;;;;;5028553;28;20422;-76
2022/04/07 12:52:14;;;;;;;1.83;0.90;;;18.30;99.90;;;;;;5009849;28;20992;-76